createdAt,value
2019-01-05T00:00:36.467Z,27.47
2019-01-05T00:03:42.428Z,29.10
2019-01-05T00:06:32.198Z,28.93
2019-01-05T00:09:33.628Z,28.30
2019-01-05T00:12:22.302Z,27.17
2019-01-05T00:15:25.612Z,28.30
2019-01-05T00:18:18.199Z,27.23
2019-01-05T00:21:08.812Z,26.70
2019-01-05T00:24:01.686Z,27.00
2019-01-05T00:27:05.345Z,27.00
2019-01-05T00:30:12.290Z,27.00
2019-01-05T00:33:20.096Z,27.00
2019-01-05T00:36:42.914Z,27.20
2019-01-05T00:39:56.406Z,26.53
2019-01-05T00:42:54.947Z,28.20
2019-01-05T00:45:50.141Z,28.20
2019-01-05T00:48:39.407Z,26.63
2019-01-05T00:51:30.118Z,27.90
2019-01-05T00:54:28.808Z,27.53
2019-01-05T00:57:16.813Z,27.83
2019-01-05T01:00:20.715Z,27.50
2019-01-05T01:03:12.368Z,28.50
2019-01-05T01:05:59.630Z,28.83
2019-01-05T01:09:06.379Z,27.63
2019-01-05T01:11:53.246Z,29.47
2019-01-05T01:14:46.139Z,29.20
2019-01-05T01:17:35.537Z,28.23
2019-01-05T01:20:22.914Z,27.77
2019-01-05T01:23:10.053Z,30.10
2019-01-05T01:25:57.448Z,28.00
2019-01-05T01:28:44.556Z,28.33
2019-01-05T01:31:44.690Z,26.93
2019-01-05T01:34:31.947Z,28.30
2019-01-05T01:37:21.232Z,27.83
2019-01-05T01:40:20.568Z,26.50
2019-01-05T01:43:14.887Z,25.57
2019-01-05T01:46:02.619Z,26.50
2019-01-05T01:48:53.966Z,27.50
2019-01-05T01:51:54.490Z,26.97
2019-01-05T01:54:46.200Z,26.30
2019-01-05T01:57:48.237Z,28.30
2019-01-05T02:00:38.936Z,26.77
2019-01-05T02:03:22.572Z,27.27
2019-01-05T02:06:17.856Z,27.30
2019-01-05T02:09:13.023Z,25.53
2019-01-05T02:12:11.359Z,26.77
2019-01-05T02:15:03.901Z,27.77
2019-01-05T02:18:17.643Z,25.60
2019-01-05T02:21:45.603Z,26.43
2019-01-05T02:25:06.591Z,26.47
2019-01-05T02:28:55.717Z,25.80
2019-01-05T02:32:07.347Z,26.07
2019-01-05T02:35:00.578Z,26.63
2019-01-05T02:38:21.918Z,25.93
2019-01-05T02:42:08.495Z,24.33
2019-01-05T02:45:39.235Z,22.80
2019-01-05T02:49:01.509Z,22.97
2019-01-05T02:52:21.547Z,20.50
2019-01-05T02:55:55.788Z,20.20
2019-01-05T02:59:21.356Z,18.50
2019-01-05T03:02:55.864Z,18.13
2019-01-05T03:06:27.441Z,17.53
2019-01-05T03:10:09.280Z,16.83
2019-01-05T03:13:21.199Z,17.17
2019-01-05T03:16:59.099Z,15.43
2019-01-05T03:20:51.159Z,15.60
2019-01-05T03:24:41.527Z,13.97
2019-01-05T03:28:33.880Z,14.23
2019-01-05T03:32:09.138Z,13.53
2019-01-05T03:35:49.974Z,13.80
2019-01-05T03:39:12.957Z,13.57
2019-01-05T03:42:32.286Z,14.10
2019-01-05T03:46:21.110Z,12.57
2019-01-05T03:49:52.220Z,13.03
2019-01-05T03:52:56.027Z,13.77
2019-01-05T03:56:23.522Z,12.47
2019-01-05T03:59:53.474Z,12.07
2019-01-05T04:02:53.734Z,11.60
2019-01-05T04:06:12.857Z,11.33
2019-01-05T04:09:41.035Z,11.27
2019-01-05T04:13:22.623Z,11.75
2019-01-05T04:16:56.718Z,8.70
2019-01-05T04:20:25.771Z,9.07
2019-01-05T04:23:47.191Z,9.53
2019-01-05T04:27:37.672Z,8.27
2019-01-05T04:31:14.246Z,8.87
2019-01-05T04:34:50.481Z,8.80
2019-01-05T04:38:15.354Z,8.67
2019-01-05T04:42:01.676Z,8.60
2019-01-05T04:45:17.420Z,9.10
2019-01-05T04:49:12.760Z,9.80
2019-01-05T04:52:53.471Z,9.73
2019-01-05T04:56:43.826Z,9.97
2019-01-05T05:00:41.503Z,9.23
2019-01-05T05:04:12.047Z,8.93
2019-01-05T05:07:31.954Z,8.00
2019-01-05T05:11:11.400Z,8.63
2019-01-05T05:15:00.511Z,9.10
2019-01-05T05:18:30.815Z,9.20
2019-01-05T05:21:54.849Z,8.03
2019-01-05T05:25:18.587Z,8.37
2019-01-05T05:29:02.025Z,7.60
2019-01-05T05:32:08.098Z,7.87
2019-01-05T05:35:26.958Z,8.00
2019-01-05T05:38:57.992Z,7.97
2019-01-05T05:42:33.481Z,7.60
2019-01-05T05:45:56.004Z,7.40
2019-01-05T05:49:30.066Z,7.20
2019-01-05T05:52:56.599Z,7.40
2019-01-05T05:56:32.534Z,7.33
2019-01-05T06:00:28.567Z,6.47
2019-01-05T06:03:48.674Z,6.73
2019-01-05T06:07:22.720Z,6.30
2019-01-05T06:10:55.590Z,6.53
2019-01-05T06:14:27.498Z,6.77
2019-01-05T06:18:04.347Z,6.57
2019-01-05T06:21:30.220Z,5.97
2019-01-05T06:24:59.797Z,6.43
2019-01-05T06:28:32.719Z,6.87
2019-01-05T06:31:52.221Z,6.40
2019-01-05T06:35:27.674Z,6.13
2019-01-05T06:39:09.085Z,6.60
2019-01-05T06:42:44.184Z,6.80
2019-01-05T06:46:23.642Z,7.37
2019-01-05T06:50:03.982Z,7.67
2019-01-05T06:53:28.135Z,7.40
2019-01-05T06:56:59.663Z,7.33
2019-01-05T07:00:35.171Z,7.47
2019-01-05T07:04:15.267Z,9.13
2019-01-05T07:07:50.481Z,6.80
2019-01-05T07:11:28.553Z,7.73
2019-01-05T07:15:10.465Z,7.50
2019-01-05T07:18:55.808Z,7.33
2019-01-05T07:22:32.509Z,7.00
2019-01-05T07:26:17.107Z,7.00
2019-01-05T07:29:39.286Z,7.17
2019-01-05T07:33:13.309Z,6.87
2019-01-05T07:36:39.607Z,7.50
2019-01-05T07:40:07.775Z,7.70
2019-01-05T07:43:36.487Z,7.53
2019-01-05T07:47:32.593Z,8.07
2019-01-05T07:51:18.818Z,6.97
2019-01-05T07:54:45.974Z,7.85
2019-01-05T07:58:23.267Z,6.73
2019-01-05T08:02:03.587Z,6.50
2019-01-05T08:05:38.054Z,7.90
2019-01-05T08:09:18.655Z,8.77
2019-01-05T08:12:59.932Z,10.07
2019-01-05T08:16:24.946Z,9.03
2019-01-05T08:19:55.784Z,8.67
2019-01-05T08:23:46.586Z,6.33
2019-01-05T08:27:15.540Z,5.97
2019-01-05T08:31:10.818Z,6.93
2019-01-05T08:34:33.277Z,6.10
2019-01-05T08:37:57.140Z,6.30
2019-01-05T08:41:21.418Z,5.87
2019-01-05T08:44:46.946Z,5.83
2019-01-05T08:48:15.971Z,5.63
2019-01-05T08:51:42.791Z,5.87
2019-01-05T08:55:17.499Z,5.97
2019-01-05T08:58:42.564Z,5.40
2019-01-05T09:02:09.585Z,4.87
2019-01-05T09:05:55.746Z,5.13
2019-01-05T09:09:26.429Z,4.50
2019-01-05T09:13:04.123Z,4.73
2019-01-05T09:16:27.142Z,4.50
2019-01-05T09:20:04.024Z,5.13
2019-01-05T09:23:36.217Z,5.20
2019-01-05T09:27:25.582Z,5.77
2019-01-05T09:31:01.451Z,5.97
2019-01-05T09:34:42.418Z,7.73
2019-01-05T09:38:29.764Z,7.17
2019-01-05T09:41:52.775Z,8.90
2019-01-05T09:45:36.077Z,7.00
2019-01-05T09:49:07.407Z,7.13
2019-01-05T09:52:45.727Z,6.90
2019-01-05T09:56:16.350Z,7.00
2019-01-05T09:59:56.821Z,6.87
2019-01-05T10:03:34.532Z,6.37
2019-01-05T10:07:14.117Z,7.00
2019-01-05T10:10:49.396Z,7.07
2019-01-05T10:14:23.838Z,5.97
2019-01-05T10:18:14.312Z,5.70
2019-01-05T10:21:37.361Z,5.57
2019-01-05T10:25:12.519Z,6.23
2019-01-05T10:28:55.871Z,7.20
2019-01-05T10:32:44.346Z,7.20
2019-01-05T10:36:21.851Z,6.77
2019-01-05T10:39:57.378Z,5.73
2019-01-05T10:43:41.812Z,5.30
2019-01-05T10:47:26.270Z,6.00
2019-01-05T10:51:23.538Z,5.60
2019-01-05T10:54:39.037Z,5.77
2019-01-05T10:58:11.525Z,5.50
2019-01-05T11:02:04.338Z,5.73
2019-01-05T11:05:31.718Z,6.00
2019-01-05T11:08:51.080Z,5.80
2019-01-05T11:12:35.617Z,5.60
2019-01-05T11:16:22.878Z,4.77
2019-01-05T11:20:05.169Z,5.33
2019-01-05T11:23:32.669Z,5.10
2019-01-05T11:27:16.680Z,5.40
2019-01-05T11:31:07.052Z,5.03
2019-01-05T11:34:37.665Z,5.67
2019-01-05T11:38:23.317Z,5.83
2019-01-05T11:41:47.741Z,5.40
2019-01-05T11:45:12.933Z,4.87
2019-01-05T11:48:28.994Z,4.17
2019-01-05T11:52:47.064Z,4.33
2019-01-05T11:56:19.927Z,5.03
2019-01-05T11:59:35.791Z,5.40
2019-01-05T12:03:09.148Z,4.80
2019-01-05T12:06:34.988Z,5.23
2019-01-05T12:09:48.055Z,5.20
2019-01-05T12:13:12.330Z,6.90
2019-01-05T12:16:31.903Z,6.47
2019-01-05T12:19:56.453Z,7.20
2019-01-05T12:23:39.750Z,6.67
2019-01-05T12:27:24.366Z,5.93
2019-01-05T12:31:05.927Z,5.67
2019-01-05T12:34:40.348Z,5.57
2019-01-05T12:38:24.494Z,5.80
2019-01-05T12:42:02.653Z,5.57
2019-01-05T12:45:22.378Z,5.57
2019-01-05T12:48:48.852Z,5.60
2019-01-05T12:52:05.255Z,5.77
2019-01-05T12:55:28.433Z,5.50
2019-01-05T12:59:02.904Z,5.37
2019-01-05T13:02:29.811Z,5.77
2019-01-05T13:06:05.746Z,5.30
2019-01-05T13:09:23.992Z,5.33
2019-01-05T13:13:02.228Z,5.40
2019-01-05T13:16:38.269Z,5.20
2019-01-05T13:20:36.156Z,5.27
2019-01-05T13:23:59.529Z,5.43
2019-01-05T13:27:51.192Z,5.77
2019-01-05T13:31:40.355Z,5.10
2019-01-05T13:35:22.776Z,5.20
2019-01-05T13:38:56.690Z,4.77
2019-01-05T13:42:32.552Z,5.00
2019-01-05T13:46:08.995Z,4.70
2019-01-05T13:49:32.644Z,4.50
2019-01-05T13:52:58.804Z,4.47
2019-01-05T13:56:03.197Z,4.43
2019-01-05T13:59:01.682Z,5.73
2019-01-05T14:02:05.995Z,4.70
2019-01-05T14:04:53.031Z,5.10
2019-01-05T14:07:44.218Z,5.03
2019-01-05T14:10:41.504Z,5.20
2019-01-05T14:13:28.777Z,4.73
2019-01-05T14:16:20.044Z,4.93
2019-01-05T14:19:17.611Z,4.27
2019-01-05T14:22:10.725Z,4.00
2019-01-05T14:24:57.995Z,3.70
2019-01-05T14:27:45.299Z,3.87
2019-01-05T14:30:45.589Z,4.43
2019-01-05T14:33:45.938Z,4.23
2019-01-05T14:36:32.844Z,4.60
2019-01-05T14:39:20.013Z,4.33
2019-01-05T14:42:07.056Z,4.00
2019-01-05T14:44:58.123Z,3.87
2019-01-05T14:48:01.721Z,4.60
2019-01-05T14:51:07.276Z,4.10
2019-01-05T14:53:55.486Z,3.80
2019-01-05T14:56:42.521Z,3.77
2019-01-05T14:59:33.583Z,3.87
2019-01-05T15:02:25.037Z,4.00
2019-01-05T15:05:23.552Z,4.00
2019-01-05T15:08:30.227Z,3.80
2019-01-05T15:11:34.008Z,3.77
2019-01-05T15:14:21.055Z,4.00
2019-01-05T15:17:12.284Z,3.97
2019-01-05T15:20:03.599Z,3.67
2019-01-05T15:23:02.389Z,4.07
2019-01-05T15:25:49.568Z,3.97
2019-01-05T15:28:56.142Z,4.07
2019-01-05T15:31:43.057Z,4.13
2019-01-05T15:34:29.874Z,4.30
2019-01-05T15:37:24.544Z,4.50
2019-01-05T15:40:11.767Z,4.00
2019-01-05T15:43:09.291Z,3.83
2019-01-05T15:46:04.195Z,3.77
2019-01-05T15:48:51.150Z,4.27
2019-01-05T15:51:38.469Z,4.67
2019-01-05T15:54:25.609Z,5.20
2019-01-05T15:57:16.996Z,4.53
2019-01-05T16:00:04.213Z,5.10
2019-01-05T16:02:51.304Z,4.83
2019-01-05T16:05:38.581Z,5.10
2019-01-05T16:08:25.488Z,6.20
2019-01-05T16:11:13.783Z,5.80
2019-01-05T16:13:59.948Z,6.20
2019-01-05T16:17:07.404Z,5.50
2019-01-05T16:19:54.205Z,5.70
2019-01-05T16:22:42.742Z,5.40
2019-01-05T16:25:34.049Z,5.37
2019-01-05T16:28:34.298Z,5.27
2019-01-05T16:31:21.420Z,5.87
2019-01-05T16:34:18.978Z,6.23
2019-01-05T16:37:13.199Z,5.97
2019-01-05T16:40:07.656Z,5.83
2019-01-05T16:42:55.964Z,5.90
2019-01-05T16:45:59.885Z,5.80
2019-01-05T16:48:46.712Z,5.87
2019-01-05T16:51:33.756Z,5.80
2019-01-05T16:54:26.000Z,5.70
2019-01-05T16:57:26.605Z,6.33
2019-01-05T17:00:13.719Z,6.73
2019-01-05T17:03:11.199Z,6.40
2019-01-05T17:05:59.603Z,6.53
2019-01-05T17:08:42.190Z,7.13
2019-01-05T17:11:29.419Z,6.33
2019-01-05T17:14:17.148Z,6.77
2019-01-05T17:17:04.758Z,6.93
2019-01-05T17:19:59.366Z,7.40
2019-01-05T17:22:46.316Z,7.30
2019-01-05T17:25:53.105Z,6.80
2019-01-05T17:28:40.070Z,7.10
2019-01-05T17:31:43.468Z,7.60
2019-01-05T17:34:30.764Z,8.87
2019-01-05T17:37:18.091Z,7.00
2019-01-05T17:40:06.387Z,7.03
2019-01-05T17:43:00.763Z,7.50
2019-01-05T17:45:48.310Z,6.40
2019-01-05T17:48:53.247Z,7.10
2019-01-05T17:51:55.034Z,6.40
2019-01-05T17:55:01.464Z,7.67
2019-01-05T17:57:49.734Z,7.83
2019-01-05T18:00:38.132Z,7.20
2019-01-05T18:03:38.371Z,6.90
2019-01-05T18:06:25.639Z,6.77
2019-01-05T18:09:26.654Z,6.70
2019-01-05T18:12:22.640Z,6.80
2019-01-05T18:15:23.117Z,6.80
2019-01-05T18:18:10.055Z,7.03
2019-01-05T18:21:04.526Z,6.60
2019-01-05T18:23:51.035Z,6.70
2019-01-05T18:26:49.522Z,6.77
2019-01-05T18:29:50.849Z,6.13
2019-01-05T18:32:38.032Z,6.33
2019-01-05T18:35:36.024Z,6.23
2019-01-05T18:38:18.544Z,6.33
2019-01-05T18:41:03.975Z,7.00
2019-01-05T18:43:55.083Z,6.50
2019-01-05T18:46:43.373Z,5.93
2019-01-05T18:49:41.533Z,6.13
2019-01-05T18:52:28.516Z,6.10
2019-01-05T18:55:15.696Z,6.07
2019-01-05T18:58:08.510Z,6.60
2019-01-05T19:01:11.951Z,6.23
2019-01-05T19:04:00.562Z,7.13
2019-01-05T19:06:47.416Z,7.03
2019-01-05T19:09:37.244Z,7.30
2019-01-05T19:12:25.390Z,7.60
2019-01-05T19:15:13.559Z,7.73
2019-01-05T19:18:00.762Z,8.77
2019-01-05T19:20:55.137Z,7.70
2019-01-05T19:23:44.718Z,8.03
2019-01-05T19:26:33.088Z,8.40
2019-01-05T19:29:24.813Z,8.40
2019-01-05T19:32:16.153Z,8.53
2019-01-05T19:35:03.187Z,8.13
2019-01-05T19:37:51.574Z,9.20
2019-01-05T19:40:39.858Z,9.00
2019-01-05T19:43:34.338Z,9.07
2019-01-05T19:46:40.880Z,8.93
2019-01-05T19:49:40.882Z,9.63
2019-01-05T19:52:29.685Z,9.00
2019-01-05T19:55:22.284Z,8.70
2019-01-05T19:58:16.633Z,9.30
2019-01-05T20:01:11.313Z,9.77
2019-01-05T20:03:58.162Z,8.87
2019-01-05T20:06:45.202Z,8.73
2019-01-05T20:09:39.565Z,9.17
2019-01-05T20:12:27.349Z,9.17
2019-01-05T20:15:19.081Z,8.43
2019-01-05T20:18:19.587Z,9.67
2019-01-05T20:21:17.177Z,8.83
2019-01-05T20:24:04.119Z,8.83
2019-01-05T20:26:51.348Z,8.93
2019-01-05T20:29:38.543Z,8.40
2019-01-05T20:32:28.006Z,8.77
2019-01-05T20:35:16.362Z,8.37
2019-01-05T20:38:10.818Z,9.57
2019-01-05T20:41:14.276Z,8.53
2019-01-05T20:44:01.793Z,9.23
2019-01-05T20:47:02.446Z,9.00
2019-01-05T20:49:49.401Z,8.43
2019-01-05T20:52:40.657Z,9.20
2019-01-05T20:55:28.334Z,9.20
2019-01-05T20:58:22.559Z,8.77
2019-01-05T21:01:09.663Z,8.03
2019-01-05T21:03:56.044Z,8.33
2019-01-05T21:06:59.951Z,8.40
2019-01-05T21:09:47.042Z,9.20
2019-01-05T21:12:35.796Z,9.43
2019-01-05T21:15:27.897Z,10.10
2019-01-05T21:18:14.836Z,9.90
2019-01-05T21:21:06.046Z,9.90
2019-01-05T21:23:53.191Z,11.23
2019-01-05T21:26:43.796Z,10.97
2019-01-05T21:29:30.867Z,11.17
2019-01-05T21:32:34.620Z,11.70
2019-01-05T21:35:16.233Z,10.67
2019-01-05T21:38:04.365Z,11.73
2019-01-05T21:40:51.543Z,11.87
2019-01-05T21:43:58.418Z,11.57
2019-01-05T21:46:43.367Z,10.83
2019-01-05T21:49:31.670Z,10.93
2019-01-05T21:52:18.709Z,11.83
2019-01-05T21:55:12.925Z,11.60
2019-01-05T21:57:59.975Z,11.63
2019-01-05T22:01:03.597Z,10.17
2019-01-05T22:03:50.748Z,11.07
2019-01-05T22:06:50.992Z,9.93
2019-01-05T22:09:39.460Z,10.80
2019-01-05T22:12:27.746Z,10.30
2019-01-05T22:15:19.018Z,9.97
2019-01-05T22:18:08.875Z,8.63
2019-01-05T22:21:00.296Z,8.63
2019-01-05T22:23:56.393Z,9.10
2019-01-05T22:26:44.982Z,8.40
2019-01-05T22:29:42.628Z,9.00
2019-01-05T22:32:38.413Z,8.40
2019-01-05T22:35:30.565Z,7.97
2019-01-05T22:38:12.530Z,10.30
2019-01-05T22:41:06.885Z,8.20
2019-01-05T22:43:54.153Z,8.63
2019-01-05T22:46:57.624Z,8.00
2019-01-05T22:50:01.010Z,7.77
2019-01-05T22:52:55.358Z,7.70
2019-01-05T22:55:42.633Z,8.03
2019-01-05T22:58:33.763Z,9.00
2019-01-05T23:01:21.053Z,9.03
2019-01-05T23:04:08.099Z,7.80
2019-01-05T23:06:55.160Z,9.13
2019-01-05T23:09:42.271Z,9.40
2019-01-05T23:12:30.553Z,8.70
2019-01-05T23:15:28.190Z,9.13
2019-01-05T23:18:25.520Z,9.20
2019-01-05T23:21:19.231Z,9.30
2019-01-05T23:24:01.625Z,9.60
2019-01-05T23:27:02.049Z,9.43
2019-01-05T23:29:48.831Z,9.17
2019-01-05T23:32:49.414Z,8.47
2019-01-05T23:35:36.357Z,8.63
2019-01-05T23:38:23.444Z,8.83
2019-01-05T23:41:10.689Z,7.97
2019-01-05T23:43:58.067Z,8.00
2019-01-05T23:46:46.431Z,9.37
2019-01-05T23:49:37.483Z,8.93
2019-01-05T23:52:24.885Z,8.33
2019-01-05T23:55:31.605Z,8.40
2019-01-05T23:58:40.292Z,7.93
